Nearby METAR Reports

 

KAVP - Avoca/Wilkes B., Pennsylvania, USA
Distance from station: SW 13mi, 22km
Updated: Thu, 27-Jun-2019 01:54 EDT
Few Clouds
Few Clouds
 Wind from calm
Wind: Calm
Temperature: 66°F , 19°C
Dew Point: 63°F , 17°C
Humidity: 88%
Barometer: 30.14 inHg , 1020.7 hPa
Clouds: Few Clouds
Visibility: 10 miles , 16 km
Cloud details: Few Clouds 8000 ft
2019/06/27 05:54 KAVP 270554Z 00000KT 10SM FEW080 19/17 A3014 RMK AO2 SLP196 60000 T01890172 10261 20189 53015
KMPO - Mt. Pocono, Pennsylvania, USA
Distance from station: SSE 26mi, 43km
Updated: Thu, 27-Jun-2019 01:53 EDT
Clear
Clear
 Wind from W
Wind: W 3 mph , 6 km/h
Temperature: 61°F , 16°C
Dew Point: 61°F , 16°C
Humidity: 100%
Barometer: 30.17 inHg , 1021.7 hPa
Clouds: Clear
Visibility: 10 miles , 16 km
2019/06/27 05:53 KMPO 270553Z AUTO 26003KT 10SM CLR 16/16 A3017 RMK AO2 SLP205 T01560156 10228 20156 53011
 
KMSV - Monticello, New York, USA
Distance from station: ENE 43mi, 69km
Updated: Thu, 27-Jun-2019 01:56 EDT
Mist, Clear
Mist, Clear
 Wind from NW
Wind: NW 3 mph , 6 km/h
Temperature: 61°F , 16°C
Dew Point: 59°F , 15°C
Humidity: 94%
Barometer: 30.16 inHg , 1021.3 hPa
Summary: Mist
Clouds: Clear
Visibility: 4 miles , 6 km
2019/06/27 05:56 KMSV 270556Z AUTO 31003KT 4SM BR CLR 16/15 A3016 RMK AO2 SLP204 60007 T01560150 10189 20150 51011
KFWN - Sussex, New Jersey, USA
Distance from station: ESE 52mi, 84km
Updated: Thu, 27-Jun-2019 01:53 EDT
Clear
Clear
 Wind from calm
Wind: Calm
Temperature: 64°F , 18°C
Dew Point: 63°F , 17°C
Humidity: 94%
Barometer: 30.11 inHg , 1019.6 hPa
Clouds: Clear
Visibility: 10 miles , 16 km
2019/06/27 05:53 KFWN 270553Z AUTO 00000KT 10SM CLR 18/17 A3011 RMK AO2 SLP193 T01780172 10267 20178 51009
 
K12N - Andover, New Jersey, USA
Distance from station: SE 54mi, 87km
Updated: Thu, 27-Jun-2019 01:54 EDT

 Wind from calm
Wind: Calm
Temperature: 66°F , 19°C
Dew Point: 64°F , 18°C
Humidity: 94%
Barometer: 30.11 inHg , 1019.6 hPa
2019/06/27 05:54 K12N 270554Z AUTO 00000KT 19/18 A3011 RMK AO1 SLP186 T01940183 10267 20194 51010
KBGM - Binghamton, New York, USA
Distance from station: NNW 55mi, 88km
Updated: Thu, 27-Jun-2019 01:53 EDT
Clear
Clear
 Wind from W
Wind: W 6 mph , 9 km/h
Temperature: 64°F , 18°C
Dew Point: 55°F , 13°C
Humidity: 73%
Barometer: 30.16 inHg , 1021.3 hPa
Clouds: Clear
Visibility: 10 miles , 16 km
2019/06/27 05:53 KBGM 270553Z AUTO 26005KT 10SM CLR 18/13 A3016 RMK AO2 SLP202 T01830128 10244 20183 53013
 
KABE - Allentown, Pennsylvania, USA
Distance from station: S 58mi, 94km
Updated: Thu, 27-Jun-2019 01:51 EDT
Partly cloudy
Partly cloudy
 Wind from NW
Wind: NW 5 mph , 7 km/h
Temperature: 72°F , 22°C
Dew Point: 66°F , 19°C
Humidity: 83%
Barometer: 30.10 inHg , 1019.3 hPa
Clouds: Partly cloudy
Visibility: 9 miles , 14 km
Cloud details: Partly cloudy 12000 ft
2019/06/27 05:51 KABE 270551Z 32004KT 9SM SCT120 22/19 A3010 RMK AO2 SLP187 T02170189 10261 20211 51013
KXLL - Allentown Queen, Pennsylvania, USA
Distance from station: S 64mi, 103km
Updated: Thu, 27-Jun-2019 02:15 EDT
Partly cloudy
Partly cloudy
 Wind from calm
Wind: Calm
Barometer: 30.12 inHg , 1020 hPa
Clouds: Partly cloudy
Visibility: 10 miles , 16 km
Cloud details: Partly cloudy 11000 ft
2019/06/27 06:15 KXLL 270615Z AUTO 00000KT 10SM SCT110 A3012 RMK AO2
 
KMGJ - Montgomery, New York, USA
Distance from station: E 67mi, 108km
Updated: Thu, 27-Jun-2019 01:54 EDT
Clear
Clear
 Wind from calm
Wind: Calm
Temperature: 63°F , 17°C
Dew Point: 63°F , 17°C
Humidity: 100%
Barometer: 30.09 inHg , 1019 hPa
Clouds: Clear
Visibility: 10 miles , 16 km
2019/06/27 05:54 KMGJ 270554Z AUTO 00000KT 10SM CLR 17/17 A3009 RMK AO2 SLP186 60000 T01720167 10228 20167 51012
KIPT - Williamsport, Pennsylvania, USA
Distance from station: WSW 72mi, 116km
Updated: Thu, 27-Jun-2019 02:21 EDT
Mostly cloudy
Mostly cloudy
 Wind from calm
Wind: Calm
Temperature: 64°F , 18°C
Dew Point: 63°F , 17°C
Humidity: 94%
Barometer: 30.12 inHg , 1020 hPa
Clouds: Mostly cloudy
Visibility: 10 miles , 16 km
Cloud details: Mostly cloudy 400 ft
2019/06/27 06:21 KIPT 270621Z AUTO 00000KT 10SM BKN004 18/17 A3012 RMK AO2 T01830172
 
KUKT - Quakertown Arp, Pennsylvania, USA
Distance from station: S 74mi, 119km
Updated: Thu, 27-Jun-2019 02:15 EDT
Partly cloudy
Partly cloudy
 Wind from calm
Wind: Calm
Temperature: 72°F , 22°C
Dew Point: 66°F , 19°C
Humidity: 83%
Barometer: 30.10 inHg , 1019.3 hPa
Clouds: Partly cloudy
Visibility: 10 miles , 16 km
Cloud details: Partly cloudy 11000 ft
2019/06/27 06:15 KUKT 270615Z AUTO 00000KT 10SM SCT110 22/19 A3010 RMK A01
KSMQ - Somerville, New Jersey, USA
Distance from station: SE 76mi, 123km
Updated: Thu, 27-Jun-2019 01:53 EDT
Clear
Clear
 Wind from calm
Wind: Calm
Temperature: 66°F , 19°C
Dew Point: 66°F , 19°C
Humidity: 100%
Barometer: 30.06 inHg , 1017.9 hPa
Clouds: Clear
Visibility: 7 miles , 11 km
2019/06/27 05:53 KSMQ 270553Z AUTO 00000KT 7SM CLR 19/19 A3006 RMK AO2 SLP176 T01940189 10261 20194 51009
 
KSWF - Newburgh/Stewart, New York, USA
Distance from station: E 77mi, 123km
Updated: Thu, 27-Jun-2019 01:45 EDT
Clear
Clear
 Wind from calm
Wind: Calm
Temperature: 66°F , 19°C
Dew Point: 66°F , 19°C
Humidity: 100%
Barometer: 30.09 inHg , 1019 hPa
Clouds: Clear
Visibility: 10 miles , 16 km
2019/06/27 05:45 KSWF 270545Z 00000KT 10SM SKC 19/19 A3009
KMMU - Morristown Muni, New Jersey, USA
Distance from station: SE 77mi, 124km
Updated: Thu, 27-Jun-2019 02:15 EDT
Partly cloudy
Partly cloudy
 Wind from calm
Wind: Calm
Temperature: 68°F , 20°C
Dew Point: 68°F , 20°C
Humidity: 100%
Barometer: 30.07 inHg , 1018.3 hPa
Clouds: Partly cloudy
Visibility: 10 miles , 16 km
Cloud details: Partly cloudy 8000 ft
2019/06/27 06:15 KMMU 270615Z AUTO 00000KT 10SM SCT080 20/20 A3007 RMK AO2
 
KCDW - Caldwell, New Jersey, USA
Distance from station: ESE 79mi, 127km
Updated: Thu, 27-Jun-2019 01:53 EDT
Overcast
Overcast
 Wind from NNE
Wind: NNE 3 mph , 6 km/h
Temperature: 73°F , 23°C
Dew Point: 68°F , 20°C
Humidity: 83%
Barometer: 30.07 inHg , 1018.3 hPa
Clouds: Overcast
Visibility: 10 miles , 16 km
Cloud details: Overcast 10000 ft
2019/06/27 05:53 KCDW 270553Z AUTO 03003KT 10SM OVC100 23/20 A3007 RMK AO2 SLP185 T02280200 10300 20228 51006
KRDG - Reading, Pennsylvania, USA
Distance from station: SSW 80mi, 130km
Updated: Thu, 27-Jun-2019 01:54 EDT
Few Clouds
Few Clouds
 Wind from calm
Wind: Calm
Temperature: 72°F , 22°C
Dew Point: 68°F , 20°C
Humidity: 88%
Barometer: 30.09 inHg , 1019 hPa
Clouds: Few Clouds
Visibility: 10 miles , 16 km
Cloud details: Few Clouds 7000 ft
2019/06/27 05:54 KRDG 270554Z AUTO 00000KT 10SM FEW070 22/20 A3009 RMK AO2 SLP191 T02170200 10261 20217 53014
 
KITH - Ithaca/Tompkins, New York, USA
Distance from station: NW 81mi, 131km
Updated: Thu, 27-Jun-2019 01:56 EDT
Clear
Clear
 Wind from ENE
Wind: ENE 3 mph , 6 km/h
Temperature: 59°F , 15°C
Dew Point: 59°F , 15°C
Humidity: 100%
Barometer: 30.15 inHg , 1021 hPa
Clouds: Clear
Visibility: 10 miles , 16 km
2019/06/27 05:56 KITH 270556Z AUTO 07003KT 10SM CLR 15/15 A3015 RMK AO2 SLP204 T01500150 10244 20144 53014
KSEG - Selinsgrove, Pennsylvania, USA
Distance from station: SW 82mi, 132km
Updated: Thu, 27-Jun-2019 01:53 EDT
Clear
Clear
 Wind from calm
Wind: Calm
Temperature: 66°F , 19°C
Dew Point: 66°F , 19°C
Humidity: 100%
Barometer: 30.13 inHg , 1020.3 hPa
Clouds: Clear
Visibility: 10 miles , 16 km
2019/06/27 05:53 KSEG 270553Z AUTO 00000KT 10SM CLR 19/19 A3013 RMK AO2 SLP198 T01940189 10272 20194 51015
 
KELM - Elmira, New York, USA
Distance from station: WNW 82mi, 133km
Updated: Thu, 27-Jun-2019 01:53 EDT
Clear
Clear
 Wind from SW
Wind: SW 6 mph , 9 km/h
Temperature: 63°F , 17°C
Dew Point: 57°F , 14°C
Humidity: 83%
Barometer: 30.14 inHg , 1020.7 hPa
Clouds: Clear
Visibility: 10 miles , 16 km
2019/06/27 05:53 KELM 270553Z AUTO 22005KT 10SM CLR 17/14 A3014 RMK AO2 SLP200 T01670144 10272 20150 51014
KDYL - Doylestown, Pennsylvania, USA
Distance from station: SSE 83mi, 134km
Updated: Thu, 27-Jun-2019 01:54 EDT
Partly cloudy
Partly cloudy
 Wind from calm
Wind: Calm
Temperature: 72°F , 22°C
Dew Point: 63°F , 17°C
Humidity: 73%
Barometer: 30.08 inHg , 1018.6 hPa
Clouds: Partly cloudy
Visibility: 10 miles , 16 km
Cloud details: Partly cloudy 7000 ft
2019/06/27 05:54 KDYL 270554Z AUTO 00000KT 10SM SCT070 22/17 A3008 RMK AO2 SLP180 T02170172 10294 20211 51009